createdAt,value
2023-06-19T02:04:20.885Z,62
2023-06-19T03:04:22.043Z,65
2023-06-19T03:14:22.228Z,66
2023-06-19T03:24:22.458Z,67
2023-06-19T03:34:22.635Z,67
2023-06-19T03:44:22.816Z,67
2023-06-19T03:54:23.055Z,68
2023-06-19T04:04:23.202Z,67
2023-06-19T04:14:23.391Z,67
2023-06-19T04:24:23.645Z,67
2023-06-19T04:34:23.782Z,68
2023-06-19T04:44:23.982Z,68
2023-06-19T04:54:24.174Z,69
2023-06-19T05:04:24.361Z,70
2023-06-19T05:14:24.544Z,71
2023-06-19T05:34:24.927Z,71
2023-06-19T05:44:25.146Z,71
2023-06-19T05:54:25.320Z,72
2023-06-19T06:04:25.548Z,73
2023-06-19T06:14:25.695Z,73
2023-06-19T06:24:25.898Z,73
2023-06-19T06:34:26.088Z,74
2023-06-19T06:44:26.274Z,74
2023-06-19T06:54:26.469Z,74
2023-06-19T07:04:26.678Z,74
2023-06-19T07:14:26.851Z,73
2023-06-19T07:24:27.154Z,73
2023-06-19T07:34:27.258Z,72
2023-06-19T07:44:27.435Z,71
2023-06-19T07:54:27.652Z,72
2023-06-19T08:04:28.089Z,73
2023-06-19T08:14:28.007Z,73
2023-06-19T08:24:28.225Z,73
2023-06-19T08:54:28.878Z,71
2023-06-19T09:04:29.044Z,70
2023-06-19T09:14:29.184Z,70
2023-06-19T09:24:29.430Z,70
2023-06-19T09:34:29.577Z,70
2023-06-19T09:44:29.739Z,67
2023-06-19T09:54:29.970Z,66
2023-06-19T10:04:30.130Z,65
2023-06-19T10:14:30.321Z,65
2023-06-19T10:24:30.607Z,64
2023-06-19T10:34:30.738Z,63
2023-06-19T10:44:30.892Z,62
2023-06-19T10:54:31.092Z,62
2023-06-19T11:04:31.289Z,60
2023-06-19T11:14:31.515Z,59
2023-06-19T11:24:31.682Z,60
2023-06-19T11:34:31.989Z,59
2023-06-19T11:44:32.037Z,58
2023-06-19T11:54:32.235Z,58
2023-06-19T12:04:32.470Z,58
2023-06-19T12:14:32.629Z,57
2023-06-19T12:24:32.863Z,57
2023-06-19T12:34:33.030Z,57
2023-06-19T12:44:33.217Z,56
2023-06-19T12:54:33.384Z,55
2023-06-19T13:04:33.574Z,54
2023-06-19T13:14:33.775Z,54
2023-06-19T13:24:33.999Z,54
2023-06-19T13:34:34.151Z,54
2023-06-19T13:44:34.348Z,53
2023-06-19T13:54:34.545Z,52
2023-06-19T14:04:34.816Z,52
2023-06-19T14:14:34.988Z,51
2023-06-19T14:34:35.338Z,50
2023-06-19T14:44:35.525Z,50
2023-06-19T14:54:35.702Z,49
2023-06-19T15:04:35.895Z,48
2023-06-19T15:14:36.088Z,48
2023-06-19T15:24:36.345Z,48
2023-06-19T15:34:36.461Z,48
2023-06-19T15:44:36.653Z,47
2023-06-19T17:04:38.180Z,48
2023-06-19T17:14:38.363Z,48
2023-06-19T17:34:38.761Z,48
2023-06-19T17:54:39.157Z,48
2023-06-19T18:34:39.910Z,49
2023-06-19T20:14:41.821Z,56
2023-06-19T20:24:42.069Z,58
2023-06-19T20:34:42.229Z,58
2023-06-19T20:44:42.396Z,58
2023-06-19T20:54:42.589Z,59
2023-06-19T21:04:42.780Z,60
2023-06-19T21:14:43.044Z,60
2023-06-19T21:24:43.183Z,61
2023-06-19T21:34:43.354Z,61
2023-06-19T21:54:43.746Z,63
2023-06-19T22:04:43.947Z,63
2023-06-19T22:14:45.655Z,63
2023-06-19T22:34:44.519Z,64
2023-06-19T22:44:44.716Z,64
